sensor_id;sensor_type;location;lat;lon;timestamp;pressure;altitude;pressure_sealevel;temperature;humidity
22582;BME280;47125;48.542;9.052;2023-04-10T00:09:58;96566.66;;;9.36;53.14
22582;BME280;47125;48.542;9.052;2023-04-10T00:20:05;96565.03;;;9.29;52.83
22582;BME280;47125;48.542;9.052;2023-04-10T00:30:09;96551.50;;;9.30;52.61
22582;BME280;47125;48.542;9.052;2023-04-10T00:40:12;96543.59;;;9.49;51.71
22582;BME280;47125;48.542;9.052;2023-04-10T00:50:16;96542.69;;;9.30;51.97
22582;BME280;47125;48.542;9.052;2023-04-10T01:00:19;96531.09;;;9.49;51.65
22582;BME280;47125;48.542;9.052;2023-04-10T01:20:42;96540.81;;;9.37;51.64
22582;BME280;47125;48.542;9.052;2023-04-10T01:30:46;96531.75;;;9.38;51.56
22582;BME280;47125;48.542;9.052;2023-04-10T01:51:08;96520.22;;;9.44;50.86
22582;BME280;47125;48.542;9.052;2023-04-10T02:01:11;96512.66;;;9.41;51.10
22582;BME280;47125;48.542;9.052;2023-04-10T02:21:51;96515.50;;;8.83;52.92
22582;BME280;47125;48.542;9.052;2023-04-10T02:31:55;96512.06;;;8.83;52.68
22582;BME280;47125;48.542;9.052;2023-04-10T02:41:59;96518.25;;;8.70;53.07
22582;BME280;47125;48.542;9.052;2023-04-10T02:52:01;96528.78;;;8.52;53.64
22582;BME280;47125;48.542;9.052;2023-04-10T03:02:05;96535.59;;;8.22;54.42
22582;BME280;47125;48.542;9.052;2023-04-10T03:12:08;96531.69;;;8.24;54.30
22582;BME280;47125;48.542;9.052;2023-04-10T03:22:11;96520.13;;;7.86;55.48
22582;BME280;47125;48.542;9.052;2023-04-10T03:32:14;96509.09;;;7.83;55.71
22582;BME280;47125;48.542;9.052;2023-04-10T03:42:19;96498.63;;;7.88;55.74
22582;BME280;47125;48.542;9.052;2023-04-10T03:52:22;96495.56;;;7.84;55.29
22582;BME280;47125;48.542;9.052;2023-04-10T04:02:26;96494.13;;;7.95;55.27
22582;BME280;47125;48.542;9.052;2023-04-10T04:12:28;96491.31;;;7.63;56.49
22582;BME280;47125;48.542;9.052;2023-04-10T04:22:32;96478.25;;;7.55;56.88
22582;BME280;47125;48.542;9.052;2023-04-10T04:32:35;96473.34;;;7.65;55.90
22582;BME280;47125;48.542;9.052;2023-04-10T04:42:38;96477.59;;;7.80;55.72
22582;BME280;47125;48.542;9.052;2023-04-10T04:52:42;96470.63;;;7.85;55.25
22582;BME280;47125;48.542;9.052;2023-04-10T05:02:49;96469.81;;;7.85;55.47
22582;BME280;47125;48.542;9.052;2023-04-10T05:12:52;96468.38;;;7.82;55.73
22582;BME280;47125;48.542;9.052;2023-04-10T05:22:56;96482.31;;;7.78;56.49
22582;BME280;47125;48.542;9.052;2023-04-10T05:32:59;96506.44;;;7.76;56.43
22582;BME280;47125;48.542;9.052;2023-04-10T05:43:02;96490.06;;;7.86;56.70
22582;BME280;47125;48.542;9.052;2023-04-10T05:53:05;96503.75;;;7.96;56.93
22582;BME280;47125;48.542;9.052;2023-04-10T06:03:12;96501.06;;;8.02;57.96
22582;BME280;47125;48.542;9.052;2023-04-10T06:13:15;96503.69;;;8.15;57.86
22582;BME280;47125;48.542;9.052;2023-04-10T06:23:19;96506.75;;;8.19;56.76
22582;BME280;47125;48.542;9.052;2023-04-10T06:33:21;96501.19;;;8.27;57.06
22582;BME280;47125;48.542;9.052;2023-04-10T06:43:27;96501.94;;;8.54;56.89
22582;BME280;47125;48.542;9.052;2023-04-10T06:53:32;96490.56;;;8.78;53.76
22582;BME280;47125;48.542;9.052;2023-04-10T07:03:35;96490.59;;;9.03;52.12
22582;BME280;47125;48.542;9.052;2023-04-10T07:13:38;96473.88;;;9.20;51.80
22582;BME280;47125;48.542;9.052;2023-04-10T07:23:42;96481.31;;;9.43;50.36
22582;BME280;47125;48.542;9.052;2023-04-10T07:33:45;96482.53;;;9.40;51.79
22582;BME280;47125;48.542;9.052;2023-04-10T07:44:07;96484.63;;;9.81;50.50
22582;BME280;47125;48.542;9.052;2023-04-10T07:54:09;96490.00;;;10.00;50.40
22582;BME280;47125;48.542;9.052;2023-04-10T08:04:13;96481.28;;;10.29;48.71
22582;BME280;47125;48.542;9.052;2023-04-10T08:14:16;96487.53;;;10.71;48.28
22582;BME280;47125;48.542;9.052;2023-04-10T08:24:23;96466.84;;;10.96;47.74
22582;BME280;47125;48.542;9.052;2023-04-10T08:34:25;96467.88;;;11.36;47.11
22582;BME280;47125;48.542;9.052;2023-04-10T08:44:29;96473.25;;;11.59;46.64
22582;BME280;47125;48.542;9.052;2023-04-10T08:54:32;96469.91;;;11.87;45.51
22582;BME280;47125;48.542;9.052;2023-04-10T09:04:36;96462.53;;;12.29;44.52
22582;BME280;47125;48.542;9.052;2023-04-10T09:14:40;96466.41;;;12.50;42.76
22582;BME280;47125;48.542;9.052;2023-04-10T09:24:44;96460.66;;;12.98;42.84
22582;BME280;47125;48.542;9.052;2023-04-10T09:34:51;96442.78;;;13.32;41.41
22582;BME280;47125;48.542;9.052;2023-04-10T09:44:56;96440.75;;;13.72;40.43
22582;BME280;47125;48.542;9.052;2023-04-10T09:54:59;96410.25;;;14.21;38.05
22582;BME280;47125;48.542;9.052;2023-04-10T10:05:03;96394.13;;;14.38;36.18
22582;BME280;47125;48.542;9.052;2023-04-10T10:15:10;96385.88;;;14.98;35.64
22582;BME280;47125;48.542;9.052;2023-04-10T10:25:18;96375.94;;;15.30;35.83
22582;BME280;47125;48.542;9.052;2023-04-10T10:35:20;96352.88;;;15.44;31.76
22582;BME280;47125;48.542;9.052;2023-04-10T10:45:31;96338.22;;;16.09;31.07
22582;BME280;47125;48.542;9.052;2023-04-10T10:55:38;96320.06;;;15.89;29.62
22582;BME280;47125;48.542;9.052;2023-04-10T11:05:48;96325.13;;;16.43;30.82
22582;BME280;47125;48.542;9.052;2023-04-10T11:15:52;96310.13;;;16.92;30.01
22582;BME280;47125;48.542;9.052;2023-04-10T11:25:58;96305.97;;;17.91;30.42
22582;BME280;47125;48.542;9.052;2023-04-10T11:46:20;96284.72;;;18.28;25.62
22582;BME280;47125;48.542;9.052;2023-04-10T11:56:23;96283.28;;;18.46;27.40
22582;BME280;47125;48.542;9.052;2023-04-10T12:06:26;96253.22;;;18.91;25.93
22582;BME280;47125;48.542;9.052;2023-04-10T12:16:29;96248.44;;;18.83;24.38
22582;BME280;47125;48.542;9.052;2023-04-10T12:26:35;96237.59;;;19.12;24.54
22582;BME280;47125;48.542;9.052;2023-04-10T12:36:38;96229.16;;;19.47;27.99
22582;BME280;47125;48.542;9.052;2023-04-10T12:46:41;96218.38;;;19.13;27.18
22582;BME280;47125;48.542;9.052;2023-04-10T12:56:44;96210.59;;;19.07;27.82
22582;BME280;47125;48.542;9.052;2023-04-10T13:06:52;96203.41;;;19.73;28.60
22582;BME280;47125;48.542;9.052;2023-04-10T13:16:54;96195.25;;;19.50;23.27
22582;BME280;47125;48.542;9.052;2023-04-10T13:26:58;96192.91;;;19.43;24.06
22582;BME280;47125;48.542;9.052;2023-04-10T13:37:01;96172.44;;;19.79;24.31
22582;BME280;47125;48.542;9.052;2023-04-10T13:47:05;96166.06;;;19.65;23.81
22582;BME280;47125;48.542;9.052;2023-04-10T13:57:08;96146.03;;;18.90;24.63
22582;BME280;47125;48.542;9.052;2023-04-10T14:07:12;96142.81;;;18.88;25.17
22582;BME280;47125;48.542;9.052;2023-04-10T14:17:14;96141.91;;;18.98;24.10
22582;BME280;47125;48.542;9.052;2023-04-10T14:27:18;96119.78;;;19.38;23.86
22582;BME280;47125;48.542;9.052;2023-04-10T14:37:23;96112.81;;;19.32;25.46
22582;BME280;47125;48.542;9.052;2023-04-10T14:47:27;96114.03;;;19.21;24.81
22582;BME280;47125;48.542;9.052;2023-04-10T14:57:29;96087.31;;;19.14;27.00
22582;BME280;47125;48.542;9.052;2023-04-10T15:07:35;96084.75;;;19.47;25.04
22582;BME280;47125;48.542;9.052;2023-04-10T15:17:37;96076.81;;;19.08;24.71
22582;BME280;47125;48.542;9.052;2023-04-10T15:27:44;96061.13;;;19.10;25.69
22582;BME280;47125;48.542;9.052;2023-04-10T15:37:47;96046.44;;;18.68;24.39
22582;BME280;47125;48.542;9.052;2023-04-10T15:47:51;96034.66;;;18.54;25.06
22582;BME280;47125;48.542;9.052;2023-04-10T15:57:53;96032.63;;;18.41;25.49
22582;BME280;47125;48.542;9.052;2023-04-10T16:18:18;96003.25;;;18.01;26.56
22582;BME280;47125;48.542;9.052;2023-04-10T16:28:21;95997.41;;;17.89;26.97
22582;BME280;47125;48.542;9.052;2023-04-10T16:38:27;95995.56;;;17.84;27.40
22582;BME280;47125;48.542;9.052;2023-04-10T16:48:30;95973.31;;;17.58;25.99
22582;BME280;47125;48.542;9.052;2023-04-10T16:58:36;95956.72;;;17.36;26.64
22582;BME280;47125;48.542;9.052;2023-04-10T17:08:41;95958.41;;;17.22;27.08
22582;BME280;47125;48.542;9.052;2023-04-10T17:18:45;95945.81;;;17.07;27.73
22582;BME280;47125;48.542;9.052;2023-04-10T17:28:47;95935.09;;;16.97;28.51
22582;BME280;47125;48.542;9.052;2023-04-10T17:38:51;95939.22;;;16.85;28.77
22582;BME280;47125;48.542;9.052;2023-04-10T17:48:54;95944.97;;;16.63;29.22
22582;BME280;47125;48.542;9.052;2023-04-10T17:59:03;95927.22;;;16.57;29.80
22582;BME280;47125;48.542;9.052;2023-04-10T18:09:05;95909.22;;;16.32;30.74
22582;BME280;47125;48.542;9.052;2023-04-10T18:19:09;95882.78;;;16.34;31.49
22582;BME280;47125;48.542;9.052;2023-04-10T18:29:11;95871.28;;;16.14;32.66
22582;BME280;47125;48.542;9.052;2023-04-10T18:39:15;95901.78;;;15.94;33.56
22582;BME280;47125;48.542;9.052;2023-04-10T18:49:18;95924.41;;;15.93;33.93
22582;BME280;47125;48.542;9.052;2023-04-10T18:59:22;95936.50;;;16.06;34.87
22582;BME280;47125;48.542;9.052;2023-04-10T19:09:24;95943.25;;;15.93;35.90
22582;BME280;47125;48.542;9.052;2023-04-10T19:19:30;95936.81;;;15.94;36.93
22582;BME280;47125;48.542;9.052;2023-04-10T19:29:32;95920.66;;;15.79;40.04
22582;BME280;47125;48.542;9.052;2023-04-10T19:39:36;95940.88;;;15.76;42.11
22582;BME280;47125;48.542;9.052;2023-04-10T19:49:39;95960.53;;;15.62;43.16
22582;BME280;47125;48.542;9.052;2023-04-10T19:59:43;95945.19;;;15.52;43.86
22582;BME280;47125;48.542;9.052;2023-04-10T20:09:45;95958.09;;;15.50;44.20
22582;BME280;47125;48.542;9.052;2023-04-10T20:19:49;95959.13;;;15.39;45.04
22582;BME280;47125;48.542;9.052;2023-04-10T20:29:51;95947.06;;;15.52;44.97
22582;BME280;47125;48.542;9.052;2023-04-10T20:39:56;95924.41;;;15.42;45.39
22582;BME280;47125;48.542;9.052;2023-04-10T20:49:59;95924.16;;;15.44;45.70
22582;BME280;47125;48.542;9.052;2023-04-10T21:00:03;95913.94;;;15.31;46.15
22582;BME280;47125;48.542;9.052;2023-04-10T21:10:08;95895.88;;;15.11;45.76
22582;BME280;47125;48.542;9.052;2023-04-10T21:20:12;95874.38;;;15.01;44.36
22582;BME280;47125;48.542;9.052;2023-04-10T21:30:18;95875.19;;;15.02;44.54
22582;BME280;47125;48.542;9.052;2023-04-10T21:40:27;95867.63;;;15.09;43.92
22582;BME280;47125;48.542;9.052;2023-04-10T21:50:34;95875.16;;;15.07;44.21
22582;BME280;47125;48.542;9.052;2023-04-10T22:00:38;95877.84;;;14.86;44.36
22582;BME280;47125;48.542;9.052;2023-04-10T22:10:41;95839.13;;;15.03;43.64
22582;BME280;47125;48.542;9.052;2023-04-10T22:20:47;95822.97;;;14.82;42.53
22582;BME280;47125;48.542;9.052;2023-04-10T22:30:53;95802.81;;;14.70;43.10
22582;BME280;47125;48.542;9.052;2023-04-10T22:40:57;95773.78;;;14.62;44.67
22582;BME280;47125;48.542;9.052;2023-04-10T22:51:00;95724.56;;;14.51;45.86
22582;BME280;47125;48.542;9.052;2023-04-10T23:01:03;95723.25;;;14.54;46.80
22582;BME280;47125;48.542;9.052;2023-04-10T23:11:06;95680.78;;;14.41;48.28
22582;BME280;47125;48.542;9.052;2023-04-10T23:21:14;95732.63;;;14.46;48.53
22582;BME280;47125;48.542;9.052;2023-04-10T23:31:16;95725.94;;;14.64;48.53
22582;BME280;47125;48.542;9.052;2023-04-10T23:41:23;95732.63;;;14.46;49.23
22582;BME280;47125;48.542;9.052;2023-04-10T23:51:26;95725.13;;;14.53;49.19
